RYR367 LMML-LICC
Flight info
| Callsign | RYR367 |
|---|---|
| Flight time | 0h 30m |
| Altitude | 14000 |
| Route | GZO N982 NELDA |
| Aircraft | B738/M-SDE2E3FGHIRWXY/LB1 |
Departure
| Time | 2026-04-28 20:36 |
|---|---|
| Airport | Malta International Airport (LMML) |
Arrival
| Time | 2026-04-28 21:07 |
|---|---|
| Airport | Catania-Fontanarossa Airport (LICC) |
| Time | Latitude | Longitude | Altitude | Speed | Heading |
|---|---|---|---|---|---|
| 2026-04-28 20:16 | 35.85327 | 14.48729 | 263 ft | 0 kts | 44° |
| 2026-04-28 20:28 | 35.85320 | 14.48721 | 263 ft | 2 kts | 43° |
| 2026-04-28 20:28 | 35.85310 | 14.48709 | 263 ft | 2 kts | 43° |
| 2026-04-28 20:28 | 35.85298 | 14.48696 | 263 ft | 2 kts | 43° |
| 2026-04-28 20:29 | 35.85288 | 14.48683 | 263 ft | 2 kts | 43° |
| 2026-04-28 20:29 | 35.85281 | 14.48675 | 263 ft | 1 kts | 44° |
| 2026-04-28 20:29 | 35.85269 | 14.48665 | 263 ft | 2 kts | 17° |
| 2026-04-28 20:29 | 35.85254 | 14.48662 | 263 ft | 2 kts | 355° |
| 2026-04-28 20:30 | 35.85240 | 14.48666 | 263 ft | 2 kts | 332° |
| 2026-04-28 20:30 | 35.85231 | 14.48674 | 263 ft | 0 kts | 315° |
| 2026-04-28 20:30 | 35.85226 | 14.48680 | 263 ft | 0 kts | 312° |
| 2026-04-28 20:33 | 35.85227 | 14.48680 | 263 ft | 0 kts | 312° |
| 2026-04-28 20:33 | 35.85234 | 14.48671 | 263 ft | 2 kts | 313° |
| 2026-04-28 20:33 | 35.85268 | 14.48624 | 263 ft | 10 kts | 302° |
| 2026-04-28 20:34 | 35.85242 | 14.48529 | 263 ft | 15 kts | 224° |
| 2026-04-28 20:34 | 35.85224 | 14.48398 | 264 ft | 19 kts | 305° |
| 2026-04-28 20:34 | 35.85343 | 14.48251 | 266 ft | 32 kts | 316° |
| 2026-04-28 20:34 | 35.85534 | 14.48073 | 264 ft | 34 kts | 341° |
| 2026-04-28 20:35 | 35.85671 | 14.47976 | 264 ft | 14 kts | 270° |
| 2026-04-28 20:35 | 35.85608 | 14.47932 | 266 ft | 11 kts | 149° |
| 2026-04-28 20:35 | 35.85554 | 14.47998 | 265 ft | 10 kts | 133° |
| 2026-04-28 20:35 | 35.85500 | 14.48067 | 265 ft | 16 kts | 134° |
| 2026-04-28 20:36 | 35.85213 | 14.48420 | 264 ft | 96 kts | 133° |
| 2026-04-28 20:36 | 35.84568 | 14.49213 | 257 ft | 161 kts | 134° |
| 2026-04-28 20:36 | 35.83694 | 14.50269 | 614 ft | 187 kts | 134° |
| 2026-04-28 20:36 | 35.82759 | 14.51304 | 1727 ft | 177 kts | 137° |
| 2026-04-28 20:37 | 35.81791 | 14.52011 | 2591 ft | 170 kts | 163° |
| 2026-04-28 20:37 | 35.80526 | 14.51915 | 2955 ft | 194 kts | 200° |
| 2026-04-28 20:37 | 35.79449 | 14.50850 | 3443 ft | 209 kts | 232° |
| 2026-04-28 20:37 | 35.78730 | 14.49215 | 3894 ft | 224 kts | 242° |
| 2026-04-28 20:38 | 35.77997 | 14.47476 | 4350 ft | 238 kts | 240° |
| 2026-04-28 20:38 | 35.77143 | 14.45677 | 4750 ft | 255 kts | 238° |
| 2026-04-28 20:38 | 35.76211 | 14.43783 | 5492 ft | 260 kts | 239° |
| 2026-04-28 20:38 | 35.75494 | 14.41820 | 6475 ft | 254 kts | 257° |
| 2026-04-28 20:39 | 35.75343 | 14.39685 | 7284 ft | 254 kts | 275° |
| 2026-04-28 20:39 | 35.75654 | 14.37555 | 8027 ft | 257 kts | 285° |
| 2026-04-28 20:39 | 35.76288 | 14.35501 | 8759 ft | 261 kts | 298° |
| 2026-04-28 20:39 | 35.77403 | 14.33768 | 9520 ft | 264 kts | 317° |
| 2026-04-28 20:40 | 35.78910 | 14.32472 | 10295 ft | 266 kts | 329° |
| 2026-04-28 20:40 | 35.80583 | 14.31517 | 11032 ft | 269 kts | 336° |
| 2026-04-28 20:40 | 35.82344 | 14.30696 | 11732 ft | 273 kts | 337° |
| 2026-04-28 20:40 | 35.84128 | 14.29876 | 11978 ft | 277 kts | 337° |
| 2026-04-28 20:41 | 35.85945 | 14.29025 | 12018 ft | 275 kts | 337° |
| 2026-04-28 20:41 | 35.87710 | 14.28187 | 12030 ft | 272 kts | 336° |
| 2026-04-28 20:41 | 35.89489 | 14.27337 | 12034 ft | 271 kts | 337° |
| 2026-04-28 20:41 | 35.91233 | 14.26504 | 12036 ft | 272 kts | 337° |
| 2026-04-28 20:42 | 35.93011 | 14.25654 | 12034 ft | 272 kts | 336° |
| 2026-04-28 20:42 | 35.94774 | 14.24811 | 12033 ft | 272 kts | 337° |
| 2026-04-28 20:42 | 35.96522 | 14.23975 | 12033 ft | 272 kts | 337° |
| 2026-04-28 20:42 | 35.98309 | 14.23121 | 12035 ft | 272 kts | 336° |
| 2026-04-28 20:43 | 36.00070 | 14.22280 | 12032 ft | 272 kts | 336° |
| 2026-04-28 20:43 | 36.01831 | 14.21439 | 12033 ft | 272 kts | 336° |
| 2026-04-28 20:43 | 36.03642 | 14.20741 | 12029 ft | 274 kts | 348° |
| 2026-04-28 20:43 | 36.05558 | 14.20686 | 12040 ft | 276 kts | 5° |
| 2026-04-28 20:44 | 36.07425 | 14.21142 | 12039 ft | 277 kts | 11° |
| 2026-04-28 20:44 | 36.09320 | 14.21676 | 12030 ft | 277 kts | 9° |
| 2026-04-28 20:44 | 36.11202 | 14.22164 | 12028 ft | 277 kts | 9° |
| 2026-04-28 20:44 | 36.13100 | 14.22622 | 12026 ft | 277 kts | 8° |
| 2026-04-28 20:45 | 36.14992 | 14.23057 | 12024 ft | 276 kts | 8° |
| 2026-04-28 20:45 | 36.16896 | 14.23489 | 12022 ft | 277 kts | 8° |
| 2026-04-28 20:45 | 36.18796 | 14.23918 | 12020 ft | 277 kts | 8° |
| 2026-04-28 20:45 | 36.20674 | 14.24342 | 12020 ft | 277 kts | 8° |
| 2026-04-28 20:46 | 36.22561 | 14.24770 | 12021 ft | 277 kts | 8° |
| 2026-04-28 20:46 | 36.24469 | 14.25205 | 12025 ft | 277 kts | 8° |
| 2026-04-28 20:46 | 36.26373 | 14.25635 | 12027 ft | 277 kts | 8° |
| 2026-04-28 20:46 | 36.28275 | 14.26063 | 12028 ft | 277 kts | 8° |
| 2026-04-28 20:47 | 36.30163 | 14.26489 | 12028 ft | 277 kts | 7° |
| 2026-04-28 20:47 | 36.32068 | 14.26919 | 12027 ft | 277 kts | 7° |
| 2026-04-28 20:47 | 36.33963 | 14.27350 | 12027 ft | 276 kts | 7° |
| 2026-04-28 20:47 | 36.35849 | 14.27778 | 12029 ft | 277 kts | 8° |
| 2026-04-28 20:48 | 36.37740 | 14.28208 | 12028 ft | 276 kts | 7° |
| 2026-04-28 20:48 | 36.39633 | 14.28637 | 12030 ft | 276 kts | 7° |
| 2026-04-28 20:48 | 36.41531 | 14.29069 | 12030 ft | 276 kts | 8° |
| 2026-04-28 20:48 | 36.43431 | 14.29502 | 12032 ft | 276 kts | 8° |
| 2026-04-28 20:49 | 36.45327 | 14.29932 | 12032 ft | 276 kts | 7° |
| 2026-04-28 20:49 | 36.47211 | 14.30359 | 12035 ft | 276 kts | 7° |
| 2026-04-28 20:49 | 36.49091 | 14.30786 | 12035 ft | 277 kts | 8° |
| 2026-04-28 20:49 | 36.50999 | 14.31222 | 12037 ft | 277 kts | 8° |
| 2026-04-28 20:50 | 36.52893 | 14.31653 | 12036 ft | 278 kts | 8° |
| 2026-04-28 20:50 | 36.54808 | 14.32088 | 12033 ft | 277 kts | 8° |
| 2026-04-28 20:50 | 36.56699 | 14.32519 | 12032 ft | 277 kts | 7° |
| 2026-04-28 20:50 | 36.58594 | 14.32950 | 12032 ft | 276 kts | 7° |
| 2026-04-28 20:51 | 36.60463 | 14.33376 | 12031 ft | 276 kts | 7° |
| 2026-04-28 20:51 | 36.62378 | 14.33811 | 12106 ft | 282 kts | 8° |
| 2026-04-28 20:51 | 36.64284 | 14.34246 | 13062 ft | 275 kts | 7° |
| 2026-04-28 20:51 | 36.65527 | 14.34531 | 13627 ft | 272 kts | 7° |
| 2026-04-28 20:52 | 36.68010 | 14.35097 | 13985 ft | 268 kts | 7° |
| 2026-04-28 20:52 | 36.69813 | 14.35509 | 14025 ft | 265 kts | 7° |
| 2026-04-28 20:52 | 36.71632 | 14.35925 | 14035 ft | 263 kts | 7° |
| 2026-04-28 20:52 | 36.73434 | 14.36336 | 14037 ft | 263 kts | 7° |
| 2026-04-28 20:53 | 36.77300 | 14.37209 | 14049 ft | 307 kts | 7° |
| 2026-04-28 20:53 | 36.79490 | 14.37705 | 14036 ft | 331 kts | 7° |
| 2026-04-28 20:53 | 36.81789 | 14.38232 | 14029 ft | 339 kts | 8° |
| 2026-04-28 20:54 | 36.84131 | 14.38774 | 14034 ft | 340 kts | 8° |
| 2026-04-28 20:54 | 36.86426 | 14.39396 | 14035 ft | 340 kts | 13° |
| 2026-04-28 20:54 | 36.88688 | 14.40317 | 14041 ft | 341 kts | 17° |
| 2026-04-28 20:54 | 36.90897 | 14.41349 | 14041 ft | 342 kts | 18° |
| 2026-04-28 20:55 | 36.93102 | 14.42411 | 14048 ft | 342 kts | 18° |
| 2026-04-28 20:55 | 36.95335 | 14.43481 | 14052 ft | 341 kts | 18° |
| 2026-04-28 20:55 | 36.97536 | 14.44524 | 14052 ft | 340 kts | 18° |
| 2026-04-28 20:55 | 36.99759 | 14.45569 | 14055 ft | 341 kts | 18° |
| 2026-04-28 20:56 | 37.01979 | 14.46611 | 14060 ft | 340 kts | 18° |
| 2026-04-28 20:56 | 37.04204 | 14.47654 | 14061 ft | 341 kts | 18° |
| 2026-04-28 20:56 | 37.06435 | 14.48700 | 14062 ft | 341 kts | 18° |
| 2026-04-28 20:56 | 37.08664 | 14.49746 | 14061 ft | 341 kts | 18° |
| 2026-04-28 20:57 | 37.10882 | 14.50789 | 14066 ft | 341 kts | 18° |
| 2026-04-28 20:57 | 37.13082 | 14.51824 | 14066 ft | 341 kts | 18° |
| 2026-04-28 20:57 | 37.15323 | 14.52878 | 14063 ft | 342 kts | 18° |
| 2026-04-28 20:57 | 37.17535 | 14.53919 | 13870 ft | 342 kts | 18° |
| 2026-04-28 20:58 | 37.19772 | 14.54973 | 13342 ft | 343 kts | 18° |
| 2026-04-28 20:58 | 37.22003 | 14.56025 | 12437 ft | 346 kts | 18° |
| 2026-04-28 20:58 | 37.24263 | 14.57090 | 11452 ft | 350 kts | 18° |
| 2026-04-28 20:58 | 37.26541 | 14.58165 | 10477 ft | 352 kts | 18° |
| 2026-04-28 20:59 | 37.28797 | 14.59229 | 9510 ft | 353 kts | 18° |
| 2026-04-28 20:59 | 37.31090 | 14.60313 | 8522 ft | 353 kts | 19° |
| 2026-04-28 20:59 | 37.33384 | 14.61398 | 7528 ft | 353 kts | 19° |
| 2026-04-28 20:59 | 37.35672 | 14.62480 | 6544 ft | 353 kts | 19° |
| 2026-04-28 21:00 | 37.37963 | 14.63564 | 5568 ft | 352 kts | 20° |
| 2026-04-28 21:00 | 37.40174 | 14.64743 | 4599 ft | 350 kts | 27° |
| 2026-04-28 21:00 | 37.42171 | 14.66461 | 3593 ft | 347 kts | 45° |
| 2026-04-28 21:00 | 37.43563 | 14.68885 | 2594 ft | 342 kts | 67° |
| 2026-04-28 21:01 | 37.44117 | 14.71689 | 2080 ft | 323 kts | 85° |
| 2026-04-28 21:01 | 37.44188 | 14.74381 | 2070 ft | 293 kts | 98° |
| 2026-04-28 21:01 | 37.43625 | 14.76689 | 2132 ft | 265 kts | 117° |
| 2026-04-28 21:01 | 37.42903 | 14.78771 | 1804 ft | 251 kts | 104° |
| 2026-04-28 21:02 | 37.42672 | 14.80752 | 2065 ft | 217 kts | 94° |
| 2026-04-28 21:02 | 37.42645 | 14.82567 | 1952 ft | 200 kts | 84° |
| 2026-04-28 21:02 | 37.43124 | 14.84085 | 1976 ft | 184 kts | 52° |
| 2026-04-28 21:02 | 37.43971 | 14.85299 | 1990 ft | 185 kts | 52° |
| 2026-04-28 21:03 | 37.44667 | 14.86663 | 1977 ft | 185 kts | 67° |
| 2026-04-28 21:03 | 37.45040 | 14.88129 | 2002 ft | 168 kts | 80° |
| 2026-04-28 21:03 | 37.45218 | 14.89593 | 1975 ft | 171 kts | 84° |
| 2026-04-28 21:03 | 37.45359 | 14.91100 | 1977 ft | 172 kts | 84° |
| 2026-04-28 21:04 | 37.45490 | 14.92592 | 1978 ft | 173 kts | 85° |
| 2026-04-28 21:04 | 37.45621 | 14.94103 | 1981 ft | 173 kts | 84° |
| 2026-04-28 21:04 | 37.45746 | 14.95547 | 1958 ft | 158 kts | 85° |
| 2026-04-28 21:04 | 37.45861 | 14.96915 | 1709 ft | 155 kts | 85° |
| 2026-04-28 21:05 | 37.45973 | 14.98237 | 1347 ft | 153 kts | 83° |
| 2026-04-28 21:05 | 37.46109 | 14.99544 | 968 ft | 148 kts | 84° |
| 2026-04-28 21:05 | 37.46184 | 15.00792 | 668 ft | 144 kts | 84° |
| 2026-04-28 21:05 | 37.46283 | 15.02040 | 516 ft | 141 kts | 84° |
| 2026-04-28 21:06 | 37.46386 | 15.03265 | 444 ft | 144 kts | 82° |
| 2026-04-28 21:06 | 37.46508 | 15.04540 | 229 ft | 146 kts | 84° |
| 2026-04-28 21:06 | 37.46609 | 15.05776 | 46 ft | 132 kts | 83° |
| 2026-04-28 21:06 | 37.46677 | 15.06581 | 29 ft | 55 kts | 83° |
| 2026-04-28 21:07 | 37.46724 | 15.06914 | 29 ft | 19 kts | 32° |
| 2026-04-28 21:07 | 37.46836 | 15.06880 | 29 ft | 11 kts | 323° |
| 2026-04-28 21:07 | 37.46857 | 15.06799 | 28 ft | 9 kts | 265° |
| 2026-04-28 21:07 | 37.46850 | 15.06722 | 28 ft | 8 kts | 263° |
| 2026-04-28 21:08 | 37.46844 | 15.06650 | 28 ft | 7 kts | 264° |
| 2026-04-28 21:08 | 37.46863 | 15.06615 | 29 ft | 4 kts | 339° |
| 2026-04-28 21:08 | 37.46891 | 15.06613 | 29 ft | 3 kts | 9° |
| 2026-04-28 21:08 | 37.46911 | 15.06621 | 29 ft | 2 kts | 21° |
| 2026-04-28 21:09 | 37.46917 | 15.06624 | 29 ft | 0 kts | 20° |